Airfield :
LOGIN :

Register | Disclaimer

   EN    FR    IT 

 










Legend :    VFR   Marginal VFR   IFR   Intensive IFR   Very Intensive IFR
Visi :
Ceiling :
>= 8 km
>= 3000ft
5 to 8 km
1000 to 3000 ft
1500m to 5 km
500 to 1000 ft
800 to 1500m
200 to 500 ft
< 800m
< 200 ft
Symbols :   Thunderstorms  Fog  Heavy snow  Heavy precipitations  Wind > 20 kt
SIGMETs :     Misc.  Thunderstorms  Icing  Turbulence  Mountain Waves  Volcanic Ashes







- Airport Elevation : 913 ft
- Download approach charts


LFSX - Luxeuil

CURRENT METAR :
  • 210500Z AUTO 36009KT 9999 OVC040 M00/M05 Q1017 NOSIG

EXPIRED METARs :
  • 210430Z AUTO 35007KT 9999 OVC045 M00/M05 Q1017 NOSIG
  • 210400Z AUTO 02006KT CAVOK M00/M05 Q1016 NOSIG
  • 201500Z AUTO 34008KT 9999 NSC 03/M03 Q1013 NOSIG
  • 210330Z AUTO 01005KT 9999 BKN048 M00/M05 Q1016 NOSIG
  • 210300Z AUTO 35004KT 310V010 9999 OVC043 M00/M05 Q1016 NOSIG
  • 210230Z AUTO 35006KT 9999 OVC042 M00/M04 Q1016 NOSIG

TAF TAF LFSX
Valid from the 20 at 15:00 until the 21 at 15:00 UTC


201400Z 2015/2115 35008KT 9999 OVC040
TEMPO 2103/2108 3000 BR
No reported NOTAMs for that airfield.



MET'MAP, your aeronautical weather chart ! - Copyright ORBIFLY December 2007 - Disclaimer

ORBIFLY MET'MAP TEAM :

Programming & Development : Alexandra Zaïnal
Concept & Development : Baudouin d'Aumeries
Co-Development & Prog : Marc-Olivier Méhu
Technical & hardware support : Manuel Goepfert

Contact : metmap@orbifly.com




SOURCES & CREDITS :

   NOAA